Time;durP1;ratioP1;P1;durP2;ratioP2;P2;SDS_P1;SDS_P2;PMS_P1;PMS_P2;Temp;Humidity;BMP_temperature;BMP_pressure;BME280_temperature;BME280_humidity;BME280_pressure;Samples;Min_cycle;Max_cycle;Signal;HPM_P1;HPM_P2
2023/03/04 00:01:53;;;;;;;10.23;2.35;;;;;;;;;;5062658;27;94957;-76
2023/03/04 00:04:19;;;;;;;8.35;2.17;;;;;;;;;;5047618;27;95301;-75
2023/03/04 00:06:45;;;;;;;9.05;2.00;;;;;;;;;;5060617;27;94536;-77
2023/03/04 00:09:12;;;;;;;7.25;1.88;;;;;;;;;;5063287;27;95365;-75
2023/03/04 00:11:38;;;;;;;8.18;2.05;;;;;;;;;;5061923;27;92257;-77
2023/03/04 00:14:05;;;;;;;7.85;2.25;;;;;;;;;;5080942;27;92450;-77
2023/03/04 00:16:31;;;;;;;9.15;2.30;;;;;;;;;;5061193;27;92641;-77
2023/03/04 00:18:58;;;;;;;9.98;2.17;;;;;;;;;;5080660;27;92792;-77
2023/03/04 00:21:24;;;;;;;6.88;1.95;;;;;;;;;;5080709;27;93428;-76
2023/03/04 00:23:51;;;;;;;10.30;1.90;;;;;;;;;;5080889;27;92304;-77
2023/03/04 00:26:17;;;;;;;7.30;1.77;;;;;;;;;;5082797;27;92407;-77
2023/03/04 00:28:44;;;;;;;9.20;2.20;;;;;;;;;;5061588;27;93611;-78
2023/03/04 00:31:11;;;;;;;10.02;2.22;;;;;;;;;;5076453;27;94441;-77
2023/03/04 00:33:39;;;;;;;9.43;2.13;;;;;;;;;;5062008;27;94912;-75
2023/03/04 00:36:06;;;;;;;11.13;1.80;;;;;;;;;;5061878;27;93865;-75
2023/03/04 00:38:32;;;;;;;10.02;1.80;;;;;;;;;;5053661;27;92574;-77
2023/03/04 00:40:59;;;;;;;7.43;1.70;;;;;;;;;;5060273;27;95100;-76
2023/03/04 00:43:25;;;;;;;6.95;1.67;;;;;;;;;;5060883;27;92760;-74
2023/03/04 00:45:52;;;;;;;8.05;1.90;;;;;;;;;;5077085;27;92487;-75
2023/03/04 00:48:18;;;;;;;7.35;1.80;;;;;;;;;;5064778;27;91756;-76
2023/03/04 00:50:45;;;;;;;10.43;1.73;;;;;;;;;;5060310;27;93842;-77
2023/03/04 00:53:11;;;;;;;9.70;1.60;;;;;;;;;;5060612;27;94389;-76
2023/03/04 00:55:37;;;;;;;8.35;1.80;;;;;;;;;;5042501;27;98282;-77
2023/03/04 00:58:04;;;;;;;12.02;1.98;;;;;;;;;;5060946;27;92686;-76
2023/03/04 01:00:31;;;;;;;7.95;1.40;;;;;;;;;;5076356;27;93406;-78
2023/03/04 01:02:57;;;;;;;6.97;1.45;;;;;;;;;;5059515;27;92427;-78
2023/03/04 01:05:24;;;;;;;8.20;1.50;;;;;;;;;;5044189;27;92636;-79
2023/03/04 01:07:52;;;;;;;12.63;1.90;;;;;;;;;;5063127;27;92578;-78
2023/03/04 01:10:19;;;;;;;10.45;2.47;;;;;;;;;;5081136;27;92396;-77
2023/03/04 01:12:45;;;;;;;12.45;3.80;;;;;;;;;;5079710;27;92711;-78
2023/03/04 01:15:13;;;;;;;13.40;4.45;;;;;;;;;;5059998;27;94832;-78
2023/03/04 01:17:39;;;;;;;15.15;3.80;;;;;;;;;;5059633;27;92774;-77
2023/03/04 01:20:07;;;;;;;11.48;3.60;;;;;;;;;;5059115;27;95494;-77
2023/03/04 01:22:34;;;;;;;;;;;;;;;;;;5079623;27;92699;-76
2023/03/04 01:25:00;;;;;;;9.40;3.00;;;;;;;;;;5080657;27;109958;-76
2023/03/04 01:27:27;;;;;;;9.27;3.00;;;;;;;;;;5060313;27;94933;-77
2023/03/04 01:29:53;;;;;;;9.82;2.53;;;;;;;;;;5082862;27;93193;-76
2023/03/04 01:32:21;;;;;;;9.00;2.88;;;;;;;;;;5064641;27;95365;-77
2023/03/04 01:34:47;;;;;;;7.97;2.10;;;;;;;;;;5060090;27;95226;-75
2023/03/04 01:37:14;;;;;;;8.80;2.75;;;;;;;;;;5062004;27;91715;-75
2023/03/04 01:39:40;;;;;;;6.18;1.48;;;;;;;;;;5080043;27;92422;-76
2023/03/04 01:42:14;;;;;;;12.38;2.42;;;;;;;;;;5080001;27;92977;-75
2023/03/04 01:44:41;;;;;;;9.75;2.10;;;;;;;;;;5077454;27;94808;-74
2023/03/04 01:47:08;;;;;;;9.20;1.88;;;;;;;;;;5061996;27;96173;-75
2023/03/04 01:49:34;;;;;;;10.60;2.28;;;;;;;;;;5060665;27;94139;-75
2023/03/04 01:52:00;;;;;;;7.75;1.70;;;;;;;;;;5082995;27;92368;-74
2023/03/04 01:54:27;;;;;;;7.18;1.70;;;;;;;;;;5078587;27;92971;-75
2023/03/04 01:56:54;;;;;;;9.07;1.80;;;;;;;;;;5068795;27;92022;-75
2023/03/04 01:59:22;;;;;;;7.05;1.77;;;;;;;;;;5064443;27;94708;-75
2023/03/04 02:01:51;;;;;;;6.47;1.90;;;;;;;;;;5064910;27;94394;-75
2023/03/04 02:04:19;;;;;;;7.25;1.75;;;;;;;;;;5082873;27;92499;-75
2023/03/04 02:06:46;;;;;;;7.28;2.20;;;;;;;;;;5064566;27;94654;-75
2023/03/04 02:09:14;;;;;;;6.38;1.63;;;;;;;;;;5066351;27;97571;-75
2023/03/04 02:11:40;;;;;;;;;;;;;;;;;;5058187;27;92073;-75
2023/03/04 02:14:07;;;;;;;7.75;1.83;;;;;;;;;;5087501;27;92081;-76
2023/03/04 02:16:33;;;;;;;10.55;2.40;;;;;;;;;;5064374;27;92127;-76
2023/03/04 02:19:00;;;;;;;7.75;2.00;;;;;;;;;;5083714;27;92938;-77
2023/03/04 02:21:32;;;;;;;6.00;1.98;;;;;;;;;;5064294;27;95227;-76
2023/03/04 02:24:11;;;;;;;7.57;2.30;;;;;;;;;;5064567;27;93554;-77
2023/03/04 02:26:40;;;;;;;7.10;2.30;;;;;;;;;;5082960;27;92830;-76
2023/03/04 02:29:08;;;;;;;8.35;2.50;;;;;;;;;;5063695;27;95555;-77
2023/03/04 02:31:36;;;;;;;8.00;2.47;;;;;;;;;;5083123;27;92529;-76
2023/03/04 02:34:04;;;;;;;7.95;2.30;;;;;;;;;;5062374;27;94948;-76
2023/03/04 02:36:31;;;;;;;9.57;2.47;;;;;;;;;;5066598;27;92792;-77
2023/03/04 02:39:04;;;;;;;8.88;1.95;;;;;;;;;;5063661;27;95505;-77
2023/03/04 02:41:31;;;;;;;9.77;2.13;;;;;;;;;;5064150;27;94702;-77
2023/03/04 02:43:58;;;;;;;9.63;2.10;;;;;;;;;;5064393;27;92376;-77
2023/03/04 02:46:25;;;;;;;7.35;1.92;;;;;;;;;;5063212;27;95328;-78
2023/03/04 02:48:52;;;;;;;8.95;2.00;;;;;;;;;;5064054;27;93082;-78
2023/03/04 02:51:19;;;;;;;7.88;1.70;;;;;;;;;;5082782;27;92746;-77
2023/03/04 02:53:46;;;;;;;6.70;1.77;;;;;;;;;;5052867;27;94052;-77
2023/03/04 02:56:13;;;;;;;5.95;1.73;;;;;;;;;;5063592;27;95524;-77
2023/03/04 02:58:40;;;;;;;7.57;1.85;;;;;;;;;;5081996;27;94651;-76
2023/03/04 03:01:08;;;;;;;7.10;1.58;;;;;;;;;;5063582;27;94722;-76
2023/03/04 03:03:35;;;;;;;7.57;1.52;;;;;;;;;;5043824;27;92623;-76
2023/03/04 03:06:02;;;;;;;7.70;1.50;;;;;;;;;;5033754;27;95117;-75
2023/03/04 03:08:29;;;;;;;6.95;1.63;;;;;;;;;;5060066;27;95359;-77
2023/03/04 03:10:55;;;;;;;6.35;1.15;;;;;;;;;;5046474;27;92465;-76
2023/03/04 03:13:23;;;;;;;7.32;1.50;;;;;;;;;;5064087;27;95387;-74
2023/03/04 03:15:50;;;;;;;7.53;1.50;;;;;;;;;;5063929;27;94432;-75
2023/03/04 03:18:16;;;;;;;5.88;1.33;;;;;;;;;;5085512;27;92150;-75
2023/03/04 03:20:43;;;;;;;6.10;1.45;;;;;;;;;;5062578;27;95190;-75
2023/03/04 03:23:09;;;;;;;4.00;1.15;;;;;;;;;;5062209;27;94460;-75
2023/03/04 03:25:36;;;;;;;6.43;1.13;;;;;;;;;;5063027;27;94970;-75
2023/03/04 03:28:04;;;;;;;8.00;1.70;;;;;;;;;;5063691;27;95457;-76
2023/03/04 03:30:30;;;;;;;9.45;1.67;;;;;;;;;;5080800;27;92791;-76
2023/03/04 03:32:57;;;;;;;5.55;1.30;;;;;;;;;;5063491;27;94940;-76
2023/03/04 03:35:24;;;;;;;6.20;1.60;;;;;;;;;;5062899;27;95222;-75
2023/03/04 03:37:50;;;;;;;7.97;1.33;;;;;;;;;;5063989;27;93005;-76
2023/03/04 03:40:17;;;;;;;14.98;1.80;;;;;;;;;;5085035;27;93247;-76
2023/03/04 03:42:43;;;;;;;6.47;1.40;;;;;;;;;;5081147;27;92219;-75
2023/03/04 03:45:10;;;;;;;6.35;1.40;;;;;;;;;;5081788;27;93858;-76
2023/03/04 03:47:36;;;;;;;7.35;1.40;;;;;;;;;;5080298;27;95125;-76
2023/03/04 03:50:03;;;;;;;7.75;1.70;;;;;;;;;;5067726;27;92193;-76
2023/03/04 03:52:30;;;;;;;3.80;1.10;;;;;;;;;;5081087;27;92835;-76
2023/03/04 03:54:56;;;;;;;6.25;1.02;;;;;;;;;;5062777;27;93538;-76
2023/03/04 03:57:24;;;;;;;6.50;1.20;;;;;;;;;;5063629;27;92344;-76
2023/03/04 03:59:50;;;;;;;5.68;1.10;;;;;;;;;;5084952;27;92772;-76
2023/03/04 04:02:17;;;;;;;11.95;1.65;;;;;;;;;;5084841;27;92695;-76
2023/03/04 04:04:43;;;;;;;11.82;1.55;;;;;;;;;;5045607;27;94664;-75
2023/03/04 04:07:10;;;;;;;13.05;1.75;;;;;;;;;;5081826;27;92711;-76
2023/03/04 04:09:36;;;;;;;5.90;1.33;;;;;;;;;;5081674;27;92232;-76
2023/03/04 04:12:04;;;;;;;7.30;1.52;;;;;;;;;;5080115;27;94817;-75
2023/03/04 04:14:30;;;;;;;;;;;;;;;;;;5070552;27;92241;-76
2023/03/04 04:16:57;;;;;;;7.38;1.40;;;;;;;;;;5075271;27;116127;-75
2023/03/04 04:19:23;;;;;;;5.80;1.10;;;;;;;;;;5081849;27;93027;-75
2023/03/04 04:21:49;;;;;;;4.85;1.17;;;;;;;;;;5079855;27;92069;-75
2023/03/04 04:24:16;;;;;;;4.55;1.13;;;;;;;;;;5083929;27;92144;-75
2023/03/04 04:26:42;;;;;;;4.45;1.20;;;;;;;;;;5061228;27;95734;-75
2023/03/04 04:29:11;;;;;;;6.88;1.10;;;;;;;;;;5081402;27;91238;-75
2023/03/04 04:31:38;;;;;;;8.80;1.35;;;;;;;;;;5062704;27;94533;-74
2023/03/04 04:34:04;;;;;;;3.70;1.00;;;;;;;;;;5080804;27;93075;-74
2023/03/04 04:36:31;;;;;;;4.95;1.05;;;;;;;;;;5059815;27;95029;-74
2023/03/04 04:38:57;;;;;;;5.28;1.10;;;;;;;;;;5062243;27;94629;-75
2023/03/04 04:41:26;;;;;;;6.28;1.00;;;;;;;;;;5062498;27;93636;-75
2023/03/04 04:43:52;;;;;;;5.32;1.08;;;;;;;;;;5080896;27;92266;-76
2023/03/04 04:46:19;;;;;;;8.80;1.67;;;;;;;;;;5080892;27;92807;-75
2023/03/04 04:48:45;;;;;;;8.07;1.20;;;;;;;;;;5080197;27;92285;-75
2023/03/04 04:51:12;;;;;;;10.25;1.30;;;;;;;;;;5080321;27;92651;-75
2023/03/04 04:53:39;;;;;;;6.05;1.20;;;;;;;;;;5081706;27;91976;-75
2023/03/04 04:56:09;;;;;;;6.95;1.42;;;;;;;;;;5045328;27;92898;-76
2023/03/04 04:58:36;;;;;;;12.25;1.20;;;;;;;;;;5060448;27;94055;-76
2023/03/04 05:01:03;;;;;;;7.15;1.10;;;;;;;;;;5078078;27;94886;-75
2023/03/04 05:03:30;;;;;;;5.57;1.25;;;;;;;;;;5045361;27;92449;-75
2023/03/04 05:05:57;;;;;;;5.20;1.40;;;;;;;;;;5080147;27;92416;-76
2023/03/04 05:08:23;;;;;;;5.47;1.10;;;;;;;;;;5065525;27;95619;-76
2023/03/04 05:10:50;;;;;;;5.78;0.85;;;;;;;;;;5080415;27;94297;-77
2023/03/04 05:13:18;;;;;;;3.92;1.00;;;;;;;;;;5079985;27;94713;-77
2023/03/04 05:15:45;;;;;;;4.95;1.27;;;;;;;;;;5066027;27;92342;-77
2023/03/04 05:18:12;;;;;;;3.95;0.95;;;;;;;;;;5081029;27;91815;-76
2023/03/04 05:20:38;;;;;;;3.42;0.95;;;;;;;;;;5061216;27;92822;-77
2023/03/04 05:23:04;;;;;;;8.23;1.30;;;;;;;;;;5080387;27;92304;-76
2023/03/04 05:25:31;;;;;;;6.57;1.38;;;;;;;;;;5059947;27;94922;-76
2023/03/04 05:27:57;;;;;;;3.47;0.80;;;;;;;;;;5064251;27;95131;-76
2023/03/04 05:30:24;;;;;;;8.10;1.00;;;;;;;;;;5084040;27;93317;-76
2023/03/04 05:32:50;;;;;;;7.70;1.20;;;;;;;;;;5066368;27;93026;-75
2023/03/04 05:35:17;;;;;;;5.05;1.13;;;;;;;;;;5083806;27;92506;-76
2023/03/04 05:37:43;;;;;;;5.10;1.00;;;;;;;;;;5065920;27;92752;-76
2023/03/04 05:40:10;;;;;;;4.85;1.10;;;;;;;;;;5083674;27;92756;-76
2023/03/04 05:42:37;;;;;;;4.25;1.08;;;;;;;;;;5078134;27;91587;-76
2023/03/04 05:45:04;;;;;;;5.30;1.05;;;;;;;;;;5083514;27;92389;-76
2023/03/04 05:47:30;;;;;;;4.65;1.00;;;;;;;;;;5065233;27;95173;-76
2023/03/04 05:49:57;;;;;;;5.18;1.00;;;;;;;;;;5049175;27;95094;-75
2023/03/04 05:52:23;;;;;;;8.40;1.50;;;;;;;;;;5083487;27;92974;-77
2023/03/04 05:54:49;;;;;;;10.65;1.80;;;;;;;;;;5050750;27;92613;-76
2023/03/04 05:57:16;;;;;;;8.32;1.30;;;;;;;;;;5083805;27;92409;-76
2023/03/04 05:59:42;;;;;;;12.48;1.60;;;;;;;;;;5093559;27;92579;-76
2023/03/04 06:02:09;;;;;;;9.35;1.35;;;;;;;;;;5066034;27;92594;-76
2023/03/04 06:04:35;;;;;;;5.38;1.00;;;;;;;;;;5082705;27;92493;-75
2023/03/04 06:07:01;;;;;;;8.15;1.17;;;;;;;;;;5051012;27;93944;-75
2023/03/04 06:09:28;;;;;;;7.32;1.25;;;;;;;;;;5075779;27;93014;-76
2023/03/04 06:11:54;;;;;;;6.20;1.00;;;;;;;;;;5083107;27;92430;-75
2023/03/04 06:14:21;;;;;;;5.35;1.10;;;;;;;;;;5081591;27;94439;-76
2023/03/04 06:16:47;;;;;;;9.82;1.30;;;;;;;;;;5063956;27;94556;-76
2023/03/04 06:19:14;;;;;;;5.38;1.20;;;;;;;;;;5064194;27;95134;-75
2023/03/04 06:21:40;;;;;;;4.53;1.13;;;;;;;;;;5064710;27;92485;-75
2023/03/04 06:24:06;;;;;;;5.45;1.10;;;;;;;;;;5081124;27;92457;-75
2023/03/04 06:26:33;;;;;;;11.40;1.50;;;;;;;;;;5064123;27;93130;-76
2023/03/04 06:28:59;;;;;;;5.05;1.15;;;;;;;;;;5083265;27;92781;-75
2023/03/04 06:31:26;;;;;;;6.72;1.00;;;;;;;;;;5083460;27;92978;-74
2023/03/04 06:33:52;;;;;;;6.75;1.20;;;;;;;;;;5085986;27;92567;-74
2023/03/04 06:36:19;;;;;;;6.35;1.13;;;;;;;;;;5082437;27;92688;-75
2023/03/04 06:38:45;;;;;;;7.22;1.20;;;;;;;;;;5080277;27;96007;-74
2023/03/04 06:41:11;;;;;;;6.32;1.23;;;;;;;;;;5063643;27;92595;-74
2023/03/04 06:43:38;;;;;;;5.50;1.20;;;;;;;;;;5053230;27;94663;-75
2023/03/04 06:46:06;;;;;;;9.20;1.40;;;;;;;;;;5081997;27;92661;-75
2023/03/04 06:48:32;;;;;;;;;;;;;;;;;;5081542;27;92617;-74
2023/03/04 06:51:03;;;;;;;3.92;1.13;;;;;;;;;;5064321;27;123487;-75
2023/03/04 06:53:30;;;;;;;5.38;1.30;;;;;;;;;;5082326;27;94182;-75
2023/03/04 06:55:56;;;;;;;8.15;1.38;;;;;;;;;;5085582;27;91795;-75
2023/03/04 06:58:22;;;;;;;8.93;1.40;;;;;;;;;;5081920;27;93146;-75
2023/03/04 07:00:49;;;;;;;9.98;1.58;;;;;;;;;;5085336;27;92210;-75
2023/03/04 07:03:15;;;;;;;5.72;1.20;;;;;;;;;;5080630;27;94605;-74
2023/03/04 07:05:42;;;;;;;6.55;1.40;;;;;;;;;;5062443;27;94881;-75
2023/03/04 07:08:08;;;;;;;7.97;1.75;;;;;;;;;;5082326;27;92412;-75
2023/03/04 07:10:35;;;;;;;5.88;1.27;;;;;;;;;;5081064;27;92568;-75
2023/03/04 07:13:02;;;;;;;8.18;1.42;;;;;;;;;;5042841;27;94594;-75
2023/03/04 07:15:29;;;;;;;8.20;1.65;;;;;;;;;;5060796;27;92348;-76
2023/03/04 07:17:55;;;;;;;7.43;1.38;;;;;;;;;;5066321;27;94835;-75
2023/03/04 07:20:22;;;;;;;5.60;1.30;;;;;;;;;;5062082;27;91843;-76
2023/03/04 07:22:48;;;;;;;5.55;1.20;;;;;;;;;;5081873;27;96136;-76
2023/03/04 07:25:16;;;;;;;5.35;1.30;;;;;;;;;;5045098;27;94327;-76
2023/03/04 07:27:43;;;;;;;5.90;1.20;;;;;;;;;;5061736;27;95207;-76
2023/03/04 07:30:10;;;;;;;6.28;1.30;;;;;;;;;;5081462;27;94885;-76
2023/03/04 07:32:36;;;;;;;3.40;1.10;;;;;;;;;;5080465;27;92932;-76
2023/03/04 07:35:03;;;;;;;5.63;1.10;;;;;;;;;;5081108;27;92530;-76
2023/03/04 07:37:29;;;;;;;5.00;0.93;;;;;;;;;;5084088;27;92682;-74
2023/03/04 07:39:55;;;;;;;4.10;1.05;;;;;;;;;;5081153;27;92164;-75
2023/03/04 07:42:22;;;;;;;5.60;1.00;;;;;;;;;;5062958;27;92587;-76
2023/03/04 07:44:58;;;;;;;4.70;1.15;;;;;;;;;;5058627;27;98680;-77
2023/03/04 07:47:25;;;;;;;3.67;0.88;;;;;;;;;;5059131;27;91993;-76
2023/03/04 07:49:52;;;;;;;5.60;1.10;;;;;;;;;;5077677;27;92811;-76
2023/03/04 07:52:18;;;;;;;5.18;1.00;;;;;;;;;;5079582;27;95261;-75
2023/03/04 07:54:45;;;;;;;3.83;1.10;;;;;;;;;;5080477;27;92164;-76
2023/03/04 07:57:11;;;;;;;3.58;1.20;;;;;;;;;;5062709;27;92416;-76
2023/03/04 07:59:38;;;;;;;5.30;1.10;;;;;;;;;;5083632;27;92785;-76
2023/03/04 08:02:04;;;;;;;6.38;1.17;;;;;;;;;;5081042;27;92832;-77
2023/03/04 08:04:30;;;;;;;7.50;1.10;;;;;;;;;;5073312;27;92734;-78
2023/03/04 08:06:57;;;;;;;7.68;1.40;;;;;;;;;;5081252;27;92396;-77
2023/03/04 08:09:24;;;;;;;9.15;1.50;;;;;;;;;;5063538;27;92896;-75
2023/03/04 08:11:50;;;;;;;7.00;1.10;;;;;;;;;;5081247;27;92631;-75
2023/03/04 08:14:17;;;;;;;6.00;1.02;;;;;;;;;;5080715;27;92097;-78
2023/03/04 08:16:43;;;;;;;6.32;1.02;;;;;;;;;;5079590;27;94966;-75
2023/03/04 08:19:10;;;;;;;10.48;1.20;;;;;;;;;;5080727;27;92796;-75
2023/03/04 08:21:37;;;;;;;36.35;2.55;;;;;;;;;;5083977;27;92366;-75
2023/03/04 08:24:06;;;;;;;17.05;2.20;;;;;;;;;;5080480;27;92733;-76
2023/03/04 08:26:40;;;;;;;14.25;1.52;;;;;;;;;;5061468;27;92052;-76
2023/03/04 08:29:08;;;;;;;15.80;1.60;;;;;;;;;;5080171;27;92833;-77
2023/03/04 08:31:35;;;;;;;5.97;1.10;;;;;;;;;;5064197;27;95970;-78
2023/03/04 08:34:02;;;;;;;7.43;1.50;;;;;;;;;;5081182;27;91633;-77
2023/03/04 08:36:29;;;;;;;5.10;0.95;;;;;;;;;;5076122;27;92642;-75
2023/03/04 08:38:55;;;;;;;9.13;1.30;;;;;;;;;;5079646;27;92245;-76
2023/03/04 08:41:22;;;;;;;4.95;0.98;;;;;;;;;;5078915;27;94530;-74
2023/03/04 08:43:48;;;;;;;8.43;1.10;;;;;;;;;;5054247;27;95820;-75
2023/03/04 08:46:14;;;;;;;4.15;1.00;;;;;;;;;;5045035;27;93198;-76
2023/03/04 08:48:41;;;;;;;6.63;1.08;;;;;;;;;;5079932;27;92706;-75
2023/03/04 08:51:08;;;;;;;7.88;1.10;;;;;;;;;;5080036;27;92554;-75
2023/03/04 08:53:35;;;;;;;3.72;1.00;;;;;;;;;;5081110;27;92153;-77
2023/03/04 08:56:02;;;;;;;7.50;1.00;;;;;;;;;;5061510;27;92666;-77
2023/03/04 08:58:28;;;;;;;5.82;1.10;;;;;;;;;;5053098;27;91855;-75
2023/03/04 09:00:58;;;;;;;6.13;1.20;;;;;;;;;;5081267;27;92596;-77
2023/03/04 09:03:25;;;;;;;7.95;0.93;;;;;;;;;;5044321;27;95245;-77
2023/03/04 09:05:51;;;;;;;6.03;1.10;;;;;;;;;;5081096;27;95398;-77
2023/03/04 09:08:18;;;;;;;3.50;1.00;;;;;;;;;;5080257;27;94733;-75
2023/03/04 09:10:44;;;;;;;6.75;1.10;;;;;;;;;;5078792;27;94219;-77
2023/03/04 09:13:13;;;;;;;6.80;0.95;;;;;;;;;;5079702;27;92273;-75
2023/03/04 09:15:44;;;;;;;2.88;0.73;;;;;;;;;;5060497;27;92556;-76
2023/03/04 09:18:10;;;;;;;4.60;1.10;;;;;;;;;;5062212;27;94919;-75
2023/03/04 09:20:37;;;;;;;3.50;0.80;;;;;;;;;;5079093;27;91992;-76
2023/03/04 09:23:03;;;;;;;3.35;0.98;;;;;;;;;;5062620;27;95340;-77
2023/03/04 09:25:30;;;;;;;4.55;0.98;;;;;;;;;;5078945;27;92755;-76
2023/03/04 09:27:56;;;;;;;2.33;0.68;;;;;;;;;;5081846;27;92089;-75
2023/03/04 09:30:22;;;;;;;3.55;0.75;;;;;;;;;;5077717;27;95267;-76
2023/03/04 09:32:49;;;;;;;2.85;0.82;;;;;;;;;;5061634;27;93368;-75
2023/03/04 09:35:16;;;;;;;5.43;1.00;;;;;;;;;;5080117;27;92857;-76
2023/03/04 09:37:45;;;;;;;7.40;1.00;;;;;;;;;;5060951;27;92717;-75
2023/03/04 09:40:37;;;;;;;5.53;0.90;;;;;;;;;;5080086;27;92797;-75
2023/03/04 09:43:05;;;;;;;3.35;0.80;;;;;;;;;;5075014;27;97422;-76
2023/03/04 09:45:45;;;;;;;3.95;1.00;;;;;;;;;;5061249;27;92833;-75
2023/03/04 09:48:14;;;;;;;3.60;0.75;;;;;;;;;;5083845;27;92129;-75
2023/03/04 09:50:46;;;;;;;3.03;0.85;;;;;;;;;;5079095;27;92750;-74
2023/03/04 09:53:19;;;;;;;3.78;0.90;;;;;;;;;;5061410;27;92311;-74
2023/03/04 09:55:48;;;;;;;2.25;0.80;;;;;;;;;;5078085;27;94579;-75
2023/03/04 09:58:21;;;;;;;2.42;0.90;;;;;;;;;;5061533;27;93042;-76
2023/03/04 10:01:08;;;;;;;1.10;0.60;;;;;;;;;;5075269;27;92556;-76
2023/03/04 10:03:47;;;;;;;3.42;0.60;;;;;;;;;;5078504;27;92273;-76
2023/03/04 10:06:17;;;;;;;2.45;0.80;;;;;;;;;;5079328;27;93315;-77
2023/03/04 10:09:03;;;;;;;2.53;0.85;;;;;;;;;;5080361;27;92178;-77
2023/03/04 10:11:29;;;;;;;3.30;0.60;;;;;;;;;;5063516;27;95276;-76
2023/03/04 10:13:56;;;;;;;3.70;0.70;;;;;;;;;;5044751;27;91577;-76
2023/03/04 10:16:25;;;;;;;1.58;0.57;;;;;;;;;;5079749;27;92341;-75
2023/03/04 10:18:54;;;;;;;2.38;0.85;;;;;;;;;;5080789;27;97291;-75
2023/03/04 10:21:25;;;;;;;2.38;0.75;;;;;;;;;;5081935;27;94824;-76
2023/03/04 10:23:53;;;;;;;2.97;0.70;;;;;;;;;;5083289;27;94869;-75
2023/03/04 10:26:20;;;;;;;2.28;0.63;;;;;;;;;;5080526;27;93907;-75
2023/03/04 10:28:47;;;;;;;2.05;0.95;;;;;;;;;;5073286;27;92557;-75
2023/03/04 10:31:26;;;;;;;1.63;0.60;;;;;;;;;;5090886;27;92491;-79
2023/03/04 10:33:52;;;;;;;2.47;0.80;;;;;;;;;;5067595;27;95555;-78
2023/03/04 10:36:31;;;;;;;5.13;0.80;;;;;;;;;;5080161;27;92419;-78
2023/03/04 10:39:00;;;;;;;2.92;0.70;;;;;;;;;;5082025;27;96729;-78
2023/03/04 10:41:28;;;;;;;1.77;0.70;;;;;;;;;;5075845;27;92753;-79
2023/03/04 10:44:01;;;;;;;3.08;0.70;;;;;;;;;;5076713;27;92819;-79
2023/03/04 10:46:28;;;;;;;4.78;0.73;;;;;;;;;;5057532;27;95519;-79
2023/03/04 10:48:54;;;;;;;3.08;0.90;;;;;;;;;;5050430;27;92556;-79
2023/03/04 10:51:22;;;;;;;1.70;0.60;;;;;;;;;;5059745;27;95090;-78
2023/03/04 10:54:15;;;;;;;1.95;0.60;;;;;;;;;;5050840;27;95459;-79
2023/03/04 10:56:45;;;;;;;3.05;0.70;;;;;;;;;;5059270;27;92576;-79
2023/03/04 10:59:30;;;;;;;1.88;0.60;;;;;;;;;;5080768;27;92717;-79
2023/03/04 11:01:57;;;;;;;1.75;0.80;;;;;;;;;;5082191;27;92473;-77
2023/03/04 11:04:26;;;;;;;;;;;;;;;;;;5077669;27;92911;-77
2023/03/04 11:06:53;;;;;;;1.95;0.60;;;;;;;;;;5046111;27;95748;-77
2023/03/04 11:09:21;;;;;;;17.55;1.70;;;;;;;;;;5073949;27;92814;-78
2023/03/04 11:11:49;;;;;;;8.82;1.10;;;;;;;;;;5058594;27;94671;-78
2023/03/04 11:14:20;;;;;;;8.70;1.02;;;;;;;;;;5079911;27;93961;-82
2023/03/04 11:16:55;;;;;;;11.18;1.40;;;;;;;;;;5078540;27;92059;-78
2023/03/04 11:19:22;;;;;;;11.23;1.30;;;;;;;;;;5063356;27;92782;-80
2023/03/04 11:21:48;;;;;;;;;;;;;;;;;;5061490;27;93518;-80
2023/03/04 11:24:18;;;;;;;7.63;0.95;;;;;;;;;;5055620;27;113930;-76
2023/03/04 11:26:54;;;;;;;9.90;1.30;;;;;;;;;;5070922;27;97512;-76
2023/03/04 11:29:30;;;;;;;4.85;0.95;;;;;;;;;;5062947;27;91452;-77
2023/03/04 11:32:02;;;;;;;4.82;0.82;;;;;;;;;;5084461;27;92118;-76
2023/03/04 11:34:32;;;;;;;4.93;1.05;;;;;;;;;;5080018;27;92303;-77
2023/03/04 11:37:00;;;;;;;8.90;1.27;;;;;;;;;;5061579;27;94556;-75
2023/03/04 11:39:48;;;;;;;9.27;1.30;;;;;;;;;;5084044;27;94797;-77
2023/03/04 11:42:24;;;;;;;6.80;0.90;;;;;;;;;;5082166;27;92405;-77
2023/03/04 11:44:53;;;;;;;4.05;1.00;;;;;;;;;;5060205;27;99008;-76
2023/03/04 11:47:32;;;;;;;6.10;1.17;;;;;;;;;;5063018;27;92355;-77
2023/03/04 11:50:08;;;;;;;5.90;1.10;;;;;;;;;;5062320;27;92119;-77
2023/03/04 11:52:43;;;;;;;4.22;1.00;;;;;;;;;;5081287;27;92502;-76
2023/03/04 11:55:15;;;;;;;4.13;1.08;;;;;;;;;;5062588;27;94978;-78
2023/03/04 11:57:51;;;;;;;4.10;0.90;;;;;;;;;;5063882;27;92421;-76
2023/03/04 12:00:17;;;;;;;6.03;1.00;;;;;;;;;;5078975;27;93254;-76
2023/03/04 12:02:56;;;;;;;5.15;0.90;;;;;;;;;;5077994;27;95002;-78
2023/03/04 12:05:25;;;;;;;2.78;0.80;;;;;;;;;;5037929;27;97500;-76
2023/03/04 12:07:54;;;;;;;2.83;0.70;;;;;;;;;;5079814;27;93062;-79
2023/03/04 12:10:23;;;;;;;4.72;0.90;;;;;;;;;;5080357;27;92492;-76
2023/03/04 12:12:56;;;;;;;2.97;0.70;;;;;;;;;;5049392;27;98650;-75
2023/03/04 12:15:27;;;;;;;8.02;0.80;;;;;;;;;;5060279;27;94655;-76
2023/03/04 12:17:53;;;;;;;2.53;0.50;;;;;;;;;;5080879;27;92569;-76
2023/03/04 12:20:49;;;;;;;12.55;1.60;;;;;;;;;;5080653;27;93187;-76
2023/03/04 12:23:28;;;;;;;8.27;1.05;;;;;;;;;;5039835;27;99645;-76
2023/03/04 12:26:13;;;;;;;9.88;1.00;;;;;;;;;;5082915;27;92954;-77
2023/03/04 12:28:51;;;;;;;20.55;1.73;;;;;;;;;;5076546;27;96254;-76
2023/03/04 12:31:27;;;;;;;15.43;1.40;;;;;;;;;;5077862;27;92688;-75
2023/03/04 12:34:04;;;;;;;14.65;1.52;;;;;;;;;;5078867;27;92655;-74
2023/03/04 12:36:33;;;;;;;9.40;1.13;;;;;;;;;;5078088;27;92656;-74
2023/03/04 12:39:18;;;;;;;14.52;1.20;;;;;;;;;;5078753;27;93182;-75
2023/03/04 12:41:54;;;;;;;11.10;1.30;;;;;;;;;;5076651;27;93096;-74
2023/03/04 12:44:21;;;;;;;10.77;1.17;;;;;;;;;;5074607;27;92710;-74
2023/03/04 12:47:10;;;;;;;7.07;1.10;;;;;;;;;;5076316;27;91790;-75
2023/03/04 12:49:41;;;;;;;5.93;1.08;;;;;;;;;;5078916;27;92360;-74
2023/03/04 12:52:08;;;;;;;10.63;1.20;;;;;;;;;;5058663;27;92365;-75
2023/03/04 12:55:00;;;;;;;9.20;1.00;;;;;;;;;;5056908;27;94716;-76
2023/03/04 12:57:30;;;;;;;7.50;1.17;;;;;;;;;;5054976;27;95162;-76
2023/03/04 13:00:15;;;;;;;6.25;1.10;;;;;;;;;;5059700;27;92391;-75
2023/03/04 13:02:42;;;;;;;6.72;1.10;;;;;;;;;;5077087;27;92429;-76
2023/03/04 13:05:19;;;;;;;3.10;0.80;;;;;;;;;;5062332;27;94390;-75
2023/03/04 13:08:04;;;;;;;7.85;1.13;;;;;;;;;;5065773;27;92730;-75
2023/03/04 13:10:31;;;;;;;6.15;1.05;;;;;;;;;;5082632;27;92396;-76
2023/03/04 13:12:58;;;;;;;5.88;0.93;;;;;;;;;;5083383;27;92126;-75
2023/03/04 13:15:30;;;;;;;5.75;1.05;;;;;;;;;;5060835;27;92750;-74
2023/03/04 13:18:15;;;;;;;5.03;1.10;;;;;;;;;;5087773;27;92863;-76
2023/03/04 13:20:42;;;;;;;4.10;0.88;;;;;;;;;;5056863;27;95013;-75
2023/03/04 13:23:08;;;;;;;3.13;0.88;;;;;;;;;;5080466;27;95636;-76
2023/03/04 13:25:38;;;;;;;5.50;1.10;;;;;;;;;;5078277;27;95333;-76
2023/03/04 13:28:09;;;;;;;5.30;0.93;;;;;;;;;;5080005;27;92849;-75
2023/03/04 13:30:39;;;;;;;4.85;1.20;;;;;;;;;;5065870;27;92504;-77
2023/03/04 13:33:08;;;;;;;3.33;0.98;;;;;;;;;;5081053;27;92812;-76
2023/03/04 13:35:49;;;;;;;7.43;1.05;;;;;;;;;;5085067;27;92430;-75
2023/03/04 13:38:25;;;;;;;3.28;0.80;;;;;;;;;;5076380;27;91698;-75
2023/03/04 13:41:10;;;;;;;3.60;0.88;;;;;;;;;;5059834;27;93285;-75
2023/03/04 13:43:41;;;;;;;3.08;0.93;;;;;;;;;;5079521;27;92572;-76
2023/03/04 13:46:16;;;;;;;4.50;0.95;;;;;;;;;;5052286;27;97426;-76
2023/03/04 13:48:49;;;;;;;3.42;1.08;;;;;;;;;;5057792;27;92588;-76
2023/03/04 13:51:25;;;;;;;3.40;0.85;;;;;;;;;;5060795;27;95318;-76
2023/03/04 13:53:58;;;;;;;3.63;1.00;;;;;;;;;;5080849;27;92728;-75
2023/03/04 13:56:31;;;;;;;2.63;0.80;;;;;;;;;;5075276;27;92153;-76
2023/03/04 13:59:03;;;;;;;4.10;0.98;;;;;;;;;;5082941;27;93433;-75
2023/03/04 14:01:31;;;;;;;4.22;0.90;;;;;;;;;;5083340;27;92383;-76
2023/03/04 14:03:59;;;;;;;5.13;0.80;;;;;;;;;;5069692;27;94559;-77
2023/03/04 14:06:31;;;;;;;2.83;0.90;;;;;;;;;;5063987;27;92704;-76
2023/03/04 14:08:57;;;;;;;4.75;1.10;;;;;;;;;;5049304;27;92104;-75
2023/03/04 14:11:31;;;;;;;2.95;0.70;;;;;;;;;;5062639;27;94706;-75
2023/03/04 14:13:59;;;;;;;2.17;0.77;;;;;;;;;;5081991;27;93255;-76
2023/03/04 14:16:27;;;;;;;4.68;0.90;;;;;;;;;;5063845;27;92441;-76
2023/03/04 14:18:58;;;;;;;3.55;0.90;;;;;;;;;;5067621;27;92991;-74
2023/03/04 14:21:24;;;;;;;4.82;0.90;;;;;;;;;;5082717;27;92065;-75
2023/03/04 14:24:02;;;;;;;3.88;0.90;;;;;;;;;;5064036;27;94815;-76
2023/03/04 14:26:29;;;;;;;2.80;0.80;;;;;;;;;;5073988;27;93639;-75
2023/03/04 14:28:58;;;;;;;3.13;0.80;;;;;;;;;;5064260;27;91626;-75
2023/03/04 14:31:28;;;;;;;2.75;0.70;;;;;;;;;;5082492;27;92108;-76
2023/03/04 14:34:00;;;;;;;3.17;0.98;;;;;;;;;;5082679;27;92976;-77
2023/03/04 14:36:29;;;;;;;4.35;0.77;;;;;;;;;;5073736;27;99335;-76
2023/03/04 14:38:57;;;;;;;3.65;0.85;;;;;;;;;;5082237;27;95272;-76
2023/03/04 14:41:30;;;;;;;3.63;0.80;;;;;;;;;;5084522;27;92687;-76
2023/03/04 14:44:07;;;;;;;2.35;0.70;;;;;;;;;;5063948;27;95084;-77
2023/03/04 14:46:39;;;;;;;3.28;0.70;;;;;;;;;;5072122;27;92515;-76
2023/03/04 14:49:06;;;;;;;2.33;0.60;;;;;;;;;;5063373;27;92322;-76
2023/03/04 14:51:35;;;;;;;3.10;0.77;;;;;;;;;;5082299;27;92516;-76
2023/03/04 14:54:02;;;;;;;2.42;0.70;;;;;;;;;;5063533;27;93902;-75